Time;durP1;ratioP1;P1;durP2;ratioP2;P2;SDS_P1;SDS_P2;PMS_P1;PMS_P2;Temp;Humidity;BMP_temperature;BMP_pressure;BME280_temperature;BME280_humidity;BME280_pressure;Samples;Min_cycle;Max_cycle;Signal;HPM_P1;HPM_P2
2022/02/19 00:01:01;;;;;;;;;;;7.70;57.60;;;6.24;60.30;95506.56;5004268;28;20407;-64
2022/02/19 00:03:26;;;;;;;;;;;7.60;57.90;;;6.23;60.34;95504.94;4978487;28;19926;-67
2022/02/19 00:05:52;;;;;;;;;;;7.60;58.10;;;6.22;60.94;95516.38;4995657;28;19925;-66
2022/02/19 00:08:18;;;;;;;;;;;7.60;58.20;;;6.21;61.18;95509.53;5000196;28;19922;-66
2022/02/19 00:10:43;;;;;;;;;;;7.60;58.20;;;6.19;61.17;95501.06;4978795;28;19921;-66
2022/02/19 00:13:09;;;;;;;;;;;7.60;58.40;;;6.21;61.27;95496.47;4985660;28;19953;-66
2022/02/19 00:15:35;;;;;;;;;;;7.60;58.70;;;6.16;61.40;95494.41;4991995;28;19921;-65
2022/02/19 00:18:01;;;;;;;;;;;7.60;58.90;;;6.18;60.55;95496.84;4981781;28;19925;-65
2022/02/19 00:20:27;;;;;;;;;;;7.50;57.80;;;6.18;60.04;95504.69;4978649;28;19925;-67
2022/02/19 00:22:52;;;;;;;;;;;7.60;57.60;;;6.19;60.67;95509.72;4993380;28;20350;-66
2022/02/19 00:25:20;;;;;;;;;;;7.60;57.20;;;6.20;60.36;95492.25;5008390;28;19922;-67
2022/02/19 00:27:46;;;;;;;;;;;7.60;57.30;;;6.18;60.10;95507.28;4988519;28;19929;-65
2022/02/19 00:30:12;;;;;;;;;;;7.60;57.00;;;6.22;59.54;95516.38;4990768;28;19922;-65
2022/02/19 00:32:37;;;;;;;;;;;7.60;56.20;;;6.23;59.51;95504.94;4992445;28;19926;-65
2022/02/19 00:35:04;;;;;;;;;;;7.60;56.00;;;6.22;57.77;95503.31;4974142;28;19925;-65
2022/02/19 00:37:30;;;;;;;;;;;7.60;54.10;;;6.20;57.40;95506.13;5001765;28;20358;-66
2022/02/19 00:39:56;;;;;;;;;;;7.60;53.90;;;6.21;57.11;95517.38;4996165;28;19926;-65
2022/02/19 00:42:21;;;;;;;;;;;7.60;54.00;;;6.22;57.78;95521.59;4967012;28;20552;-66
2022/02/19 00:44:47;;;;;;;;;;;7.60;53.50;;;6.20;57.27;95511.34;5009187;28;19921;-65
2022/02/19 00:47:13;;;;;;;;;;;7.60;53.60;;;6.20;56.61;95544.47;4983099;28;20317;-66
2022/02/19 00:49:38;;;;;;;;;;;7.50;54.10;;;6.16;57.57;95533.56;4975552;28;19921;-65
2022/02/19 00:52:04;;;;;;;;;;;7.50;54.60;;;6.14;58.01;95544.19;4990517;28;19929;-66
2022/02/19 00:54:30;;;;;;;;;;;7.50;55.20;;;6.12;57.86;95542.75;4991804;28;20386;-65
2022/02/19 00:56:56;;;;;;;;;;;7.50;55.30;;;6.10;58.87;95547.31;5004453;28;19922;-65
2022/02/19 00:59:21;;;;;;;;;;;7.40;56.30;;;6.05;58.29;95557.47;4989329;28;19925;-67
2022/02/19 01:01:47;;;;;;;;;;;7.40;56.10;;;6.01;59.03;95564.84;4980162;28;19926;-65
2022/02/19 01:04:13;;;;;;;;;;;7.30;55.80;;;6.00;58.97;95550.16;5001091;28;19940;-67
2022/02/19 01:06:38;;;;;;;;;;;7.40;56.00;;;5.98;58.13;95543.50;4992291;28;19964;-65
2022/02/19 01:09:05;;;;;;;;;;;7.40;55.90;;;5.95;58.44;95554.28;4981822;28;19928;-67
2022/02/19 01:11:31;;;;;;;;;;;7.30;56.30;;;5.91;59.18;95539.97;5000907;28;20025;-65
2022/02/19 01:13:57;;;;;;;;;;;7.20;55.90;;;5.86;59.13;95558.69;4961935;28;20377;-66
2022/02/19 01:16:22;;;;;;;;;;;7.20;56.30;;;5.81;59.16;95554.00;4976875;28;19932;-66
2022/02/19 01:18:49;;;;;;;;;;;7.20;56.70;;;5.77;59.68;95557.13;4972738;28;19971;-66
2022/02/19 01:21:16;;;;;;;;;;;7.10;57.40;;;5.77;60.28;95564.97;4987656;28;19921;-67
2022/02/19 01:23:42;;;;;;;;;;;7.10;57.70;;;5.74;59.83;95565.31;5006793;28;19976;-65
2022/02/19 01:26:08;;;;;;;;;;;7.10;58.30;;;5.74;60.39;95575.75;4971005;28;19921;-66
2022/02/19 01:28:34;;;;;;;;;;;7.20;58.50;;;5.74;61.10;95578.34;4978032;28;19921;-65
2022/02/19 01:31:00;;;;;;;;;;;7.10;58.60;;;5.71;61.08;95583.91;5012520;23;19929;-66
2022/02/19 01:33:25;;;;;;;;;;;7.10;58.70;;;5.70;60.20;95579.69;4986851;28;19940;-67
2022/02/19 01:35:51;;;;;;;;;;;7.00;58.60;;;5.67;61.06;95570.41;5026662;28;19925;-67
2022/02/19 01:38:18;;;;;;;;;;;7.10;58.50;;;5.67;61.28;95573.03;5030631;28;19925;-67
2022/02/19 01:40:44;;;;;;;;;;;7.10;58.50;;;5.66;60.36;95567.94;5028436;28;19925;-67
2022/02/19 01:43:10;;;;;;;;;;;7.10;58.30;;;5.66;60.60;95565.34;5007966;28;19928;-67
2022/02/19 01:45:37;;;;;;;;;;;7.10;57.80;;;5.67;59.79;95564.38;4990013;28;19926;-67
2022/02/19 01:48:02;;;;;;;;;;;7.10;57.30;;;5.65;58.74;95556.69;5007557;28;19946;-67
2022/02/19 01:50:28;;;;;;;;;;;7.10;56.60;;;5.66;58.99;95567.94;5011197;28;19922;-67
2022/02/19 01:52:54;;;;;;;;;;;7.10;56.40;;;5.65;58.60;95567.13;4993325;28;19937;-67
2022/02/19 01:55:19;;;;;;;;;;;7.10;55.00;;;5.66;58.63;95565.34;5010024;28;19977;-66
2022/02/19 01:57:45;;;;;;;;;;;7.10;55.00;;;5.66;57.72;95567.94;5015238;28;19928;-66
2022/02/19 02:00:13;;;;;;;;;;;7.10;54.80;;;5.65;57.97;95576.75;5008334;28;19935;-66
2022/02/19 02:02:39;;;;;;;;;;;7.10;54.20;;;5.67;58.04;95574.81;5028178;28;20411;-66
2022/02/19 02:05:05;;;;;;;;;;;7.10;54.40;;;5.67;57.40;95572.22;5024647;28;19921;-67
2022/02/19 02:07:31;;;;;;;;;;;7.10;54.20;;;5.69;57.68;95583.28;5018537;28;19929;-66
2022/02/19 02:09:58;;;;;;;;;;;7.10;54.60;;;5.67;57.80;95580.03;5004606;28;20292;-66
2022/02/19 02:12:24;;;;;;;;;;;7.10;54.80;;;5.67;58.08;95590.47;5009517;28;20036;-67
2022/02/19 02:14:49;;;;;;;;;;;7.10;55.20;;;5.66;57.89;95579.22;5014827;28;20337;-67
2022/02/19 02:17:15;;;;;;;;;;;7.10;55.30;;;5.67;58.46;95587.88;4998989;28;19944;-66
2022/02/19 02:19:41;;;;;;;;;;;7.10;55.80;;;5.67;58.68;95606.13;4998540;28;19929;-66
2022/02/19 02:22:07;;;;;;;;;;;7.10;56.00;;;5.65;59.53;95593.22;5016437;28;19921;-66
2022/02/19 02:24:35;;;;;;;;;;;7.10;56.80;;;5.63;59.54;95591.78;5009384;28;19933;-67
2022/02/19 02:27:07;;;;;;;;;;;7.00;57.50;;;5.60;60.36;95597.34;4999257;28;20017;-67
2022/02/19 02:29:39;;;;;;;;;;;7.00;57.90;;;5.57;60.10;95605.50;5005414;28;20397;-66
2022/02/19 02:32:05;;;;;;;;;;;6.90;58.40;;;5.56;60.98;95609.09;5012966;28;20010;-67
2022/02/19 02:34:31;;;;;;;;;;;7.00;59.00;;;5.52;61.11;95604.22;4995317;28;19980;-67
2022/02/19 02:36:56;;;;;;;;;;;6.90;59.40;;;5.52;62.02;95604.22;5012024;28;20392;-66
2022/02/19 02:39:22;;;;;;;;;;;6.90;59.90;;;5.50;61.67;95600.97;5012072;28;19925;-66
2022/02/19 02:41:47;;;;;;;;;;;6.90;60.30;;;5.52;62.75;95598.19;5013078;28;19932;-67
2022/02/19 02:44:13;;;;;;;;;;;7.00;60.40;;;5.50;62.07;95605.38;5012754;28;19935;-66
2022/02/19 02:46:39;;;;;;;;;;;7.00;60.70;;;5.46;62.96;95604.91;4977728;28;20304;-67
2022/02/19 02:49:04;;;;;;;;;;;6.90;61.20;;;5.45;62.88;95613.72;5022621;28;20065;-66
2022/02/19 02:51:31;;;;;;;;;;;6.90;61.50;;;5.42;63.81;95619.25;5016902;28;19928;-67
2022/02/19 02:53:57;;;;;;;;;;;6.90;61.80;;;5.39;64.35;95613.56;5011625;28;19922;-66
2022/02/19 02:56:22;;;;;;;;;;;6.80;62.30;;;5.38;64.38;95627.59;5012554;28;19921;-67
2022/02/19 02:58:48;;;;;;;;;;;6.80;62.80;;;5.37;64.68;95621.56;5012623;28;19925;-66
2022/02/19 03:01:14;;;;;;;;;;;6.80;63.10;;;5.37;64.81;95631.16;5013478;28;20415;-65
2022/02/19 03:03:39;;;;;;;;;;;6.90;63.00;;;5.35;64.84;95623.53;5026626;28;19971;-66
2022/02/19 03:06:05;;;;;;;;;;;6.80;63.40;;;5.33;65.48;95630.69;5024662;28;20208;-66
2022/02/19 03:08:31;;;;;;;;;;;6.80;63.90;;;5.31;65.30;95632.66;4998629;28;19921;-66
2022/02/19 03:10:56;;;;;;;;;;;6.70;64.10;;;5.28;65.58;95648.66;4991936;28;19980;-66
2022/02/19 03:13:22;;;;;;;;;;;6.70;64.50;;;5.27;66.41;95639.19;5011994;28;19940;-66
2022/02/19 03:15:48;;;;;;;;;;;6.70;64.60;;;5.27;65.46;95646.22;5024216;28;19951;-66
2022/02/19 03:18:17;;;;;;;;;;;6.70;64.80;;;5.26;65.97;95645.41;5002376;28;19922;-68
2022/02/19 03:20:42;;;;;;;;;;;6.70;65.10;;;5.23;65.44;95646.53;5008445;28;19951;-66
2022/02/19 03:23:08;;;;;;;;;;;6.70;65.10;;;5.22;66.90;95657.16;5016589;28;19917;-67
2022/02/19 03:25:34;;;;;;;;;;;6.60;65.50;;;5.19;67.49;95647.03;5005554;28;19952;-67
2022/02/19 03:27:59;;;;;;;;;;;6.60;66.00;;;5.14;66.21;95654.53;5023212;28;20278;-66
2022/02/19 03:30:25;;;;;;;;;;;6.50;66.90;;;5.10;68.08;95655.84;5016019;28;19966;-67
2022/02/19 03:32:51;;;;;;;;;;;6.50;67.20;;;5.08;68.74;95663.03;5015118;28;19932;-67
2022/02/19 03:35:16;;;;;;;;;;;6.50;67.40;;;5.01;68.20;95668.09;5009779;28;20344;-66
2022/02/19 03:37:42;;;;;;;;;;;6.30;68.10;;;4.97;69.72;95669.38;5009029;28;20389;-67
2022/02/19 03:40:09;;;;;;;;;;;6.30;68.70;;;4.88;70.50;95671.19;5016292;28;19926;-66
2022/02/19 03:42:36;;;;;;;;;;;6.10;69.60;;;4.82;70.09;95674.47;4995475;28;19930;-66
2022/02/19 03:45:02;;;;;;;;;;;6.10;70.20;;;4.74;70.10;95677.03;5012303;28;19928;-66
2022/02/19 03:47:28;;;;;;;;;;;6.00;70.60;;;4.67;70.36;95678.69;4999705;28;19967;-66
2022/02/19 03:49:53;;;;;;;;;;;6.00;70.70;;;4.60;69.80;95680.31;5003933;28;19925;-66
2022/02/19 03:52:19;;;;;;;;;;;5.90;70.60;;;4.57;71.55;95680.66;5016170;28;19925;-67
2022/02/19 03:54:45;;;;;;;;;;;5.90;70.30;;;4.51;70.42;95670.84;4994846;28;19922;-66
2022/02/19 03:57:11;;;;;;;;;;;5.80;69.70;;;4.46;69.91;95688.75;5014339;28;19967;-66
2022/02/19 03:59:36;;;;;;;;;;;5.80;68.90;;;4.43;69.00;95689.09;5013975;28;20288;-66
2022/02/19 04:02:02;;;;;;;;;;;5.80;68.50;;;4.41;67.82;95683.22;5013954;28;19975;-66
2022/02/19 04:04:28;;;;;;;;;;;5.80;66.90;;;4.38;65.80;95693.97;4999963;28;19931;-66
2022/02/19 04:06:53;;;;;;;;;;;5.80;64.40;;;4.37;65.80;95689.75;5021757;28;20614;-66
2022/02/19 04:09:19;;;;;;;;;;;5.70;63.90;;;4.35;64.98;95704.72;5018681;28;19929;-66
2022/02/19 04:11:44;;;;;;;;;;;5.70;62.70;;;4.34;65.11;95706.50;5025809;28;20272;-66
2022/02/19 04:14:10;;;;;;;;;;;5.70;62.90;;;4.34;64.75;95710.88;5010692;28;19932;-67
2022/02/19 04:16:36;;;;;;;;;;;5.70;62.60;;;4.29;64.26;95712.16;5029724;28;19978;-66
2022/02/19 04:19:01;;;;;;;;;;;5.70;62.40;;;4.29;64.25;95709.56;5028499;28;19921;-66
2022/02/19 04:21:27;;;;;;;;;;;5.70;62.50;;;4.27;64.83;95732.34;4995215;28;19921;-66
2022/02/19 04:23:53;;;;;;;;;;;5.60;63.00;;;4.25;64.96;95734.28;5013005;28;19925;-66
2022/02/19 04:26:19;;;;;;;;;;;5.70;63.10;;;4.24;65.07;95737.03;4997904;28;19922;-66
2022/02/19 04:28:44;;;;;;;;;;;5.60;63.60;;;4.20;66.04;95736.56;5014287;28;19964;-67
2022/02/19 04:31:10;;;;;;;;;;;5.60;64.20;;;4.19;67.22;95740.13;4997025;28;20310;-71
2022/02/19 04:33:36;;;;;;;;;;;5.60;65.90;;;4.14;68.38;95742.41;5017320;28;19928;-66
2022/02/19 04:36:01;;;;;;;;;;;5.40;67.60;;;4.11;69.09;95742.72;5016048;28;19987;-71
2022/02/19 04:38:28;;;;;;;;;;;5.50;68.20;;;4.08;68.83;95753.44;5015875;28;19921;-71
2022/02/19 04:40:53;;;;;;;;;;;5.50;69.20;;;4.03;70.61;95755.69;5017857;28;19933;-69
2022/02/19 04:43:19;;;;;;;;;;;5.40;70.60;;;4.00;71.75;95771.63;5011455;28;19918;-74
2022/02/19 04:45:45;;;;;;;;;;;5.40;71.20;;;3.96;71.72;95765.91;5005725;28;19926;-73
2022/02/19 04:48:10;;;;;;;;;;;5.40;71.70;;;3.92;72.73;95763.78;5031356;28;19928;-68
2022/02/19 04:50:36;;;;;;;;;;;5.30;72.30;;;3.91;72.27;95780.38;5015608;28;20447;-67
2022/02/19 04:53:02;;;;;;;;;;;5.30;72.40;;;3.89;73.55;95787.50;5016914;28;19948;-67
2022/02/19 04:55:27;;;;;;;;;;;5.30;72.80;;;3.85;73.58;95791.41;5011912;28;19921;-67
2022/02/19 04:57:53;;;;;;;;;;;5.20;72.90;;;3.83;73.00;95790.72;5010953;28;20356;-67
2022/02/19 05:00:19;;;;;;;;;;;5.20;73.00;;;3.81;73.31;95795.25;5008910;28;19932;-68
2022/02/19 05:02:44;;;;;;;;;;;5.20;73.10;;;3.80;72.36;95791.03;4993011;28;19980;-67
2022/02/19 05:05:10;;;;;;;;;;;5.20;72.80;;;3.78;72.97;95787.75;4995479;28;20528;-67
2022/02/19 05:07:36;;;;;;;;;;;5.20;72.90;;;3.74;73.09;95786.44;5010626;28;19918;-66
2022/02/19 05:10:03;;;;;;;;;;;5.10;73.00;;;3.72;73.10;95794.41;5010623;28;20001;-67
2022/02/19 05:12:29;;;;;;;;;;;5.10;73.00;;;3.69;73.48;95803.34;5015891;28;19921;-67
2022/02/19 05:14:54;;;;;;;;;;;5.10;72.90;;;3.68;73.22;95793.09;4994274;28;20410;-67
2022/02/19 05:17:20;;;;;;;;;;;5.10;72.90;;;3.67;73.39;95807.06;4994384;28;19929;-67
2022/02/19 05:19:46;;;;;;;;;;;5.10;72.80;;;3.64;73.69;95808.19;5011947;28;19987;-67
2022/02/19 05:22:11;;;;;;;;;;;5.10;72.80;;;3.63;73.07;95811.75;5012568;28;20297;-67
2022/02/19 05:24:37;;;;;;;;;;;5.10;72.60;;;3.61;73.04;95818.88;5013616;28;19929;-68
2022/02/19 05:27:03;;;;;;;;;;;5.10;72.40;;;3.64;72.87;95816.00;5013833;28;19917;-67
2022/02/19 05:29:28;;;;;;;;;;;5.10;71.90;;;3.63;72.47;95821.34;5011729;28;20008;-67
2022/02/19 05:31:54;;;;;;;;;;;5.10;71.90;;;3.63;71.75;95816.97;5011946;28;20466;-67
2022/02/19 05:34:20;;;;;;;;;;;5.10;71.50;;;3.66;71.68;95823.63;5014742;28;19943;-67
2022/02/19 05:36:45;;;;;;;;;;;5.10;71.20;;;3.67;72.50;95822.66;5001168;28;19968;-70
2022/02/19 05:39:11;;;;;;;;;;;5.20;70.90;;;3.67;71.87;95820.88;5011248;28;19921;-69
2022/02/19 05:41:37;;;;;;;;;;;5.20;70.30;;;3.72;71.67;95828.22;4993948;28;20296;-69
2022/02/19 05:44:06;;;;;;;;;;;5.30;70.20;;;3.75;71.56;95832.31;5010938;28;19918;-69
2022/02/19 05:46:34;;;;;;;;;;;5.30;69.90;;;3.79;71.26;95849.22;4994759;28;19917;-69
2022/02/19 05:49:00;;;;;;;;;;;5.40;69.90;;;3.79;70.74;95841.41;5010547;28;19917;-68
2022/02/19 05:51:27;;;;;;;;;;;5.30;69.50;;;3.82;70.55;95841.94;4993148;28;19928;-68
2022/02/19 05:53:53;;;;;;;;;;;5.40;69.30;;;3.84;70.43;95846.97;5012187;28;20401;-69
2022/02/19 05:56:18;;;;;;;;;;;5.40;69.10;;;3.87;70.54;95841.50;4994172;28;19971;-68
2022/02/19 05:58:44;;;;;;;;;;;5.40;69.10;;;3.88;70.96;95850.94;5010418;28;19924;-68
2022/02/19 06:01:10;;;;;;;;;;;5.40;69.10;;;3.88;70.39;95850.94;4994137;28;19928;-68
2022/02/19 06:03:36;;;;;;;;;;;5.40;68.90;;;3.89;70.41;95857.75;5009901;28;19918;-69
2022/02/19 06:06:01;;;;;;;;;;;5.40;68.80;;;3.89;71.10;95849.97;4993873;28;19940;-68
2022/02/19 06:08:27;;;;;;;;;;;5.40;69.00;;;3.88;70.97;95856.94;5028764;28;19927;-68
2022/02/19 06:10:53;;;;;;;;;;;5.40;68.90;;;3.90;69.97;95859.41;5013494;28;19974;-69
2022/02/19 06:13:18;;;;;;;;;;;5.40;68.90;;;3.89;70.20;95865.56;5013197;28;20367;-69
2022/02/19 06:15:44;;;;;;;;;;;5.40;69.00;;;3.88;70.04;95869.13;5013138;28;19966;-69
2022/02/19 06:18:09;;;;;;;;;;;5.40;68.80;;;3.89;70.59;95879.41;5030018;28;19924;-71
2022/02/19 06:20:35;;;;;;;;;;;5.50;68.50;;;3.92;70.29;95886.06;5010194;28;19947;-70
2022/02/19 06:23:01;;;;;;;;;;;5.50;68.10;;;3.96;69.95;95875.19;5010402;28;20428;-70
2022/02/19 06:25:27;;;;;;;;;;;5.60;67.90;;;3.99;69.89;95879.28;5009469;28;19933;-70
2022/02/19 06:27:52;;;;;;;;;;;5.60;67.60;;;4.03;69.89;95891.00;5010021;28;19925;-70
2022/02/19 06:30:18;;;;;;;;;;;5.60;67.40;;;4.05;69.89;95891.66;5010834;28;19922;-70
2022/02/19 06:32:45;;;;;;;;;;;5.60;67.20;;;4.09;69.37;95906.03;5013317;28;19992;-70
2022/02/19 06:35:11;;;;;;;;;;;5.70;67.00;;;4.13;69.52;95902.16;5013144;28;20393;-70
2022/02/19 06:37:40;;;;;;;;;;;5.70;66.90;;;4.16;69.99;95916.63;5011796;28;20020;-71
2022/02/19 06:40:08;;;;;;;;;;;5.80;67.10;;;4.19;69.44;95921.53;5009352;28;20132;-70
2022/02/19 06:42:35;;;;;;;;;;;5.80;66.70;;;4.22;69.69;95922.03;5009430;28;19968;-70
2022/02/19 06:45:00;;;;;;;;;;;5.90;66.80;;;4.26;69.14;95918.16;4993216;28;19918;-71
2022/02/19 06:47:26;;;;;;;;;;;5.90;66.60;;;4.28;69.40;95921.41;4993029;28;19975;-71
2022/02/19 06:49:52;;;;;;;;;;;5.90;66.80;;;4.32;69.55;95931.53;4992994;28;19997;-69
2022/02/19 06:52:17;;;;;;;;;;;5.90;67.30;;;4.35;69.75;95931.22;5022131;28;19943;-68
2022/02/19 06:54:43;;;;;;;;;;;6.00;67.40;;;4.38;70.19;95934.34;5028793;28;19963;-68
2022/02/19 06:57:13;;;;;;;;;;;6.10;67.50;;;4.44;69.31;95933.72;5012755;28;19925;-69
2022/02/19 06:59:42;;;;;;;;;;;6.10;66.70;;;4.49;68.38;95936.66;5012417;28;19932;-69
2022/02/19 07:02:08;;;;;;;;;;;6.20;66.10;;;4.52;69.16;95941.56;5010332;28;19917;-69
2022/02/19 07:04:34;;;;;;;;;;;6.20;66.30;;;4.55;68.66;95949.09;5012325;28;20439;-69
2022/02/19 07:06:59;;;;;;;;;;;6.20;65.40;;;4.58;68.44;95955.78;4987473;28;19917;-70
2022/02/19 07:09:25;;;;;;;;;;;6.20;65.20;;;4.58;67.81;95969.63;5008115;28;20317;-70
2022/02/19 07:11:54;;;;;;;;;;;6.20;64.90;;;4.62;68.14;95964.91;4992310;28;19921;-70
2022/02/19 07:14:20;;;;;;;;;;;6.40;64.90;;;4.64;67.60;95973.38;5008328;28;20020;-70
2022/02/19 07:16:46;;;;;;;;;;;6.40;64.80;;;4.70;67.62;95977.97;5016529;28;19921;-70
2022/02/19 07:19:11;;;;;;;;;;;6.60;64.20;;;4.83;66.92;95987.97;5012020;28;20485;-70
2022/02/19 07:21:37;;;;;;;;;;;6.90;62.90;;;4.97;66.42;95989.16;5025934;28;19921;-69
2022/02/19 07:24:04;;;;;;;;;;;7.10;61.40;;;5.10;65.83;95979.09;4992275;28;19943;-69
2022/02/19 07:26:29;;;;;;;;;;;7.20;60.30;;;5.23;66.03;95995.13;4991389;28;19956;-70
2022/02/19 07:28:55;;;;;;;;;;;7.40;60.10;;;5.36;65.69;95986.84;5008720;28;20415;-69
2022/02/19 07:31:21;;;;;;;;;;;7.50;59.70;;;5.44;65.42;95998.13;5008292;28;19921;-70
2022/02/19 07:33:46;;;;;;;;;;;7.40;59.90;;;5.48;65.11;95999.44;5008255;28;19921;-69
2022/02/19 07:36:12;;;;;;;;;;;7.30;60.50;;;5.47;64.56;95997.81;5010705;28;19921;-69
2022/02/19 07:38:38;;;;;;;;;;;7.30;59.90;;;5.48;64.28;96009.88;5027479;28;19917;-69
2022/02/19 07:41:03;;;;;;;;;;;7.20;60.10;;;5.47;64.45;96002.22;5007431;28;19941;-72
2022/02/19 07:43:29;;;;;;;;;;;7.20;60.30;;;5.47;65.23;96012.63;4988944;28;19922;-69
2022/02/19 07:45:55;;;;;;;;;;;7.20;60.70;;;5.56;65.71;96018.69;4990657;28;20407;-69
2022/02/19 07:48:21;;;;;;;;;;;7.70;60.00;;;5.64;65.68;96016.91;5000626;28;20391;-68
2022/02/19 07:58:58;;;;;;;;;;;8.60;57.70;;;6.15;64.27;96030.72;5010252;28;19932;-72
2022/02/19 08:01:24;;;;;;;;;;;9.00;56.00;;;6.33;62.89;96033.13;5010654;28;20309;-74
2022/02/19 08:03:50;;;;;;;;;;;9.20;54.10;;;6.51;62.18;96033.78;5015909;28;19952;-72
2022/02/19 08:06:15;;;;;;;;;;;9.50;52.80;;;6.64;59.07;96034.09;4975253;28;19921;-70
2022/02/19 08:08:41;;;;;;;;;;;9.50;49.20;;;6.76;59.07;96043.22;4991582;28;19928;-72
2022/02/19 08:11:07;;;;;;;;;;;9.70;48.70;;;6.92;58.98;96037.13;5006043;28;20305;-69
2022/02/19 08:13:33;;;;;;;;;;;10.00;48.90;;;7.04;57.92;96042.84;5014602;28;19925;-70
2022/02/19 08:15:58;;;;;;;;;;;10.10;46.80;;;7.12;56.59;96040.19;5013019;28;19917;-70
2022/02/19 08:18:24;;;;;;;;;;;10.10;46.50;;;7.27;56.82;96051.59;5024827;28;20377;-70
2022/02/19 08:20:50;;;;;;;;;;;10.60;46.40;;;7.43;56.59;96055.09;4994784;28;19929;-70
2022/02/19 08:23:17;;;;;;;;;;;10.90;46.20;;;7.57;56.76;96044.72;5019517;28;19925;-67
2022/02/19 08:25:43;;;;;;;;;;;10.90;45.80;;;7.71;56.92;96053.69;4999019;28;20384;-69
2022/02/19 08:28:09;;;;;;;;;;;10.80;45.50;;;7.72;56.65;96050.06;5000806;28;20282;-69
2022/02/19 08:30:35;;;;;;;;;;;10.70;47.10;;;7.84;56.71;96051.28;5020745;28;19922;-69
2022/02/19 08:33:01;;;;;;;;;;;11.10;46.70;;;8.03;56.76;96057.06;5011189;28;19928;-70
2022/02/19 08:35:27;;;;;;;;;;;11.30;45.80;;;8.15;55.73;96045.22;4993870;28;19921;-70
2022/02/19 08:37:52;;;;;;;;;;;11.50;45.10;;;8.26;55.30;96047.41;5010755;28;20410;-70
2022/02/19 08:40:18;;;;;;;;;;;11.10;44.80;;;8.26;54.48;96036.94;4994308;28;20297;-71
2022/02/19 08:42:44;;;;;;;;;;;10.90;44.80;;;8.33;53.92;96048.31;4977212;28;19925;-70
2022/02/19 08:45:10;;;;;;;;;;;11.20;44.20;;;8.41;52.36;96056.19;4994348;28;19925;-70
2022/02/19 08:47:36;;;;;;;;;;;11.40;41.50;;;8.48;51.32;96062.34;5023522;28;19929;-70
2022/02/19 08:50:02;;;;;;;;;;;11.10;40.00;;;8.59;51.19;96058.47;5016489;28;19922;-68
2022/02/19 08:52:27;;;;;;;;;;;11.70;40.10;;;8.81;50.35;96054.16;5016525;28;19975;-68
2022/02/19 08:54:53;;;;;;;;;;;12.10;39.40;;;8.95;51.58;96056.00;5004629;28;19925;-68
2022/02/19 08:57:19;;;;;;;;;;;12.10;39.60;;;9.17;48.59;96057.72;5028164;28;19921;-68
2022/02/19 08:59:44;;;;;;;;;;;12.70;37.70;;;9.42;50.17;96060.06;4996145;28;20396;-68
2022/02/19 09:02:10;;;;;;;;;;;12.90;36.60;;;9.57;49.75;96063.50;4991626;28;20009;-69
2022/02/19 09:04:36;;;;;;;;;;;12.80;36.00;;;9.76;48.78;96064.75;5007356;28;19926;-68
2022/02/19 09:07:01;;;;;;;;;;;13.10;34.60;;;10.07;46.53;96062.66;5010249;28;19922;-68
2022/02/19 09:09:28;;;;;;;;;;;14.10;33.70;;;10.25;45.55;96062.25;5010881;28;20249;-68
2022/02/19 09:11:54;;;;;;;;;;;13.60;33.10;;;10.46;44.25;96073.78;5004060;28;19983;-67
2022/02/19 09:14:20;;;;;;;;;;;13.80;32.00;;;10.56;43.57;96064.56;5005398;28;19921;-67
2022/02/19 09:16:46;;;;;;;;;;;13.70;31.50;;;10.70;42.45;96076.00;5014936;28;20001;-67
2022/02/19 09:19:11;;;;;;;;;;;14.10;31.20;;;10.80;42.72;96063.34;5024031;28;19921;-65
2022/02/19 09:21:38;;;;;;;;;;;14.10;31.40;;;10.91;41.92;96081.25;5010821;28;20297;-65
2022/02/19 09:24:04;;;;;;;;;;;14.00;30.80;;;10.85;42.67;96068.03;5011268;28;19975;-67
2022/02/19 09:26:30;;;;;;;;;;;13.80;31.20;;;10.88;42.89;96084.25;4995059;28;20389;-66
2022/02/19 09:28:55;;;;;;;;;;;13.90;31.10;;;11.01;40.10;96079.06;5010018;28;19929;-66
2022/02/19 09:31:22;;;;;;;;;;;14.20;30.30;;;11.08;41.86;96088.81;5021616;28;19928;-66
2022/02/19 09:33:48;;;;;;;;;;;14.60;31.30;;;11.17;42.08;96087.69;4995678;28;19937;-66
2022/02/19 09:36:13;;;;;;;;;;;14.70;31.10;;;11.41;40.96;96089.88;5020740;28;19921;-67
2022/02/19 09:38:40;;;;;;;;;;;15.50;29.00;;;11.69;43.03;96096.91;5009679;28;19990;-67
2022/02/19 09:41:07;;;;;;;;;;;16.30;28.60;;;11.96;41.08;96096.84;5001676;28;19995;-67
2022/02/19 09:43:36;;;;;;;;;;;16.80;27.10;;;12.12;42.18;96092.22;5020630;28;19925;-66
2022/02/19 09:46:03;;;;;;;;;;;17.00;27.10;;;12.40;39.30;96084.16;5022338;28;19922;-66
2022/02/19 09:48:28;;;;;;;;;;;18.10;25.50;;;12.56;39.66;96094.34;5010619;28;20277;-66
2022/02/19 09:50:56;;;;;;;;;;;18.10;24.50;;;12.68;38.80;96098.03;5000590;28;19925;-67
2022/02/19 09:53:22;;;;;;;;;;;18.10;24.80;;;12.92;38.77;96098.44;5008481;28;19925;-66
2022/02/19 09:55:48;;;;;;;;;;;18.90;23.70;;;12.99;35.91;96099.25;4994756;28;19925;-66
2022/02/19 09:58:14;;;;;;;;;;;19.20;23.20;;;13.25;36.86;96117.75;5012533;28;19917;-67
2022/02/19 10:00:43;;;;;;;;;;;19.50;22.60;;;13.58;37.55;96101.84;5002348;28;19932;-67
2022/02/19 10:03:21;;;;;;;;;;;19.70;22.30;;;14.07;38.13;96101.25;4996828;28;19976;-66
2022/02/19 10:05:47;;;;;;;;;;;21.00;21.30;;;14.51;38.03;96107.56;5025442;28;19917;-69
2022/02/19 10:08:12;;;;;;;;;;;20.70;21.00;;;15.03;39.43;96113.50;4992927;28;20004;-69
2022/02/19 10:10:48;;;;;;;;;;;22.00;19.30;;;15.28;36.75;96098.41;5018094;28;19928;-69
2022/02/19 10:13:30;;;;;;;;;;;22.10;19.20;;;15.67;34.57;96112.34;5028902;28;20523;-69
2022/02/19 10:15:55;;;;;;;;;;;22.90;18.40;;;16.05;35.82;96111.28;5008560;28;19924;-69
2022/02/19 10:18:25;;;;;;;;;;;23.70;17.80;;;16.44;35.94;96115.28;5006526;28;20381;-67
2022/02/19 10:21:09;;;;;;;;;;;24.60;17.80;;;17.09;35.35;96107.41;5018129;28;19960;-68
2022/02/19 10:23:39;;;;;;;;;;;26.90;16.30;;;17.67;34.96;96112.78;5022627;28;20456;-67
2022/02/19 10:26:04;;;;;;;;;;;27.50;15.40;;;18.03;35.29;96113.50;4981643;28;19975;-67
2022/02/19 10:28:30;;;;;;;;;;;27.40;15.80;;;18.55;34.07;96121.44;5006864;28;19930;-67
2022/02/19 10:30:56;;;;;;;;;;;29.10;15.10;;;19.07;37.09;96113.31;4995516;28;19931;-68
2022/02/19 10:33:25;;;;;;;;;;;29.50;14.40;;;19.57;34.17;96118.66;4985078;28;20382;-67
2022/02/19 10:35:53;;;;;;;;;;;29.30;14.10;;;19.93;32.46;96121.84;4987019;28;19956;-67
2022/02/19 10:38:20;;;;;;;;;;;30.30;14.20;;;20.44;34.68;96125.94;5006072;28;20048;-68
2022/02/19 10:40:52;;;;;;;;;;;31.10;13.60;;;20.61;33.24;96126.69;5008011;28;19945;-67
2022/02/19 10:43:30;;;;;;;;;;;30.30;13.40;;;20.70;32.25;96130.50;5007919;28;19925;-66
2022/02/19 10:45:59;;;;;;;;;;;30.00;13.90;;;20.85;30.35;96129.84;5007653;28;19940;-66
2022/02/19 10:48:31;;;;;;;;;;;29.60;13.50;;;21.02;33.13;96129.72;5008185;28;19925;-67
2022/02/19 10:51:11;;;;;;;;;;;29.60;13.60;;;21.25;33.23;96118.72;5020714;28;19983;-67
2022/02/19 10:53:37;;;;;;;;;;;30.40;13.60;;;21.17;32.86;96127.19;4991612;28;20467;-68
2022/02/19 10:56:11;;;;;;;;;;;28.70;14.30;;;21.21;32.47;96132.84;5007817;28;20447;-68
2022/02/19 10:58:38;;;;;;;;;;;29.00;13.70;;;21.30;31.07;96124.13;4988708;28;19918;-67
2022/02/19 11:01:20;;;;;;;;;;;29.30;14.00;;;21.18;30.18;96131.47;4973326;28;20024;-68
2022/02/19 11:03:45;;;;;;;;;;;27.50;14.20;;;21.04;34.70;96132.94;5008130;28;19922;-68
2022/02/19 11:06:11;;;;;;;;;;;28.00;14.30;;;20.92;31.83;96125.09;5007932;28;20395;-68
2022/02/19 11:08:37;;;;;;;;;;;26.50;15.30;;;20.71;29.73;96116.06;5007747;28;19921;-68
2022/02/19 11:11:02;;;;;;;;;;;26.10;15.00;;;19.99;29.91;96121.66;5019508;28;20277;-68
2022/02/19 11:13:28;;;;;;;;;;;24.10;17.40;;;19.70;28.49;96122.84;5011246;28;19918;-68
2022/02/19 11:15:54;;;;;;;;;;;25.10;16.80;;;19.60;29.67;96128.03;4990013;28;19925;-68
2022/02/19 11:18:20;;;;;;;;;;;26.40;16.50;;;19.64;30.33;96118.47;4989206;28;19930;-67
2022/02/19 11:20:46;;;;;;;;;;;26.90;15.70;;;19.91;30.70;96122.06;4999312;28;19925;-67
2022/02/19 11:23:11;;;;;;;;;;;27.60;15.30;;;20.16;30.19;96126.94;5002477;28;19921;-67
2022/02/19 11:25:37;;;;;;;;;;;28.30;14.60;;;20.51;29.63;96123.88;4994388;28;19937;-68
2022/02/19 11:28:08;;;;;;;;;;;29.10;14.30;;;21.09;30.28;96119.66;5020218;28;19921;-68
2022/02/19 11:30:39;;;;;;;;;;;30.60;13.10;;;21.41;29.05;96111.63;4995101;28;19926;-67
2022/02/19 11:33:04;;;;;;;;;;;30.20;13.10;;;21.56;28.42;96113.59;4992065;28;19921;-68